createdAt,value
2023-05-09T00:00:39.787Z,3.40
2023-05-09T00:03:06.372Z,3.60
2023-05-09T00:05:33.184Z,3.37
2023-05-09T00:07:59.739Z,3.17
2023-05-09T00:10:27.359Z,3.40
2023-05-09T00:12:53.831Z,3.43
2023-05-09T00:15:20.424Z,3.20
2023-05-09T00:17:47.365Z,3.20
2023-05-09T00:20:14.541Z,2.93
2023-05-09T00:22:41.363Z,3.30
2023-05-09T00:25:11.901Z,3.27
2023-05-09T00:27:38.593Z,3.00
2023-05-09T00:30:05.793Z,3.00
2023-05-09T00:32:33.372Z,3.30
2023-05-09T00:34:59.925Z,3.47
2023-05-09T00:37:26.704Z,3.73
2023-05-09T00:39:53.136Z,3.10
2023-05-09T00:42:19.579Z,3.40
2023-05-09T00:44:46.411Z,3.30
2023-05-09T00:47:12.972Z,3.40
2023-05-09T00:49:39.501Z,3.50
2023-05-09T00:52:06.302Z,3.60
2023-05-09T00:54:33.097Z,3.50
2023-05-09T00:57:00.903Z,3.40
2023-05-09T00:59:27.534Z,3.07
2023-05-09T01:01:54.033Z,3.60
2023-05-09T01:04:20.874Z,3.70
2023-05-09T01:06:55.527Z,3.60
2023-05-09T01:09:32.602Z,3.73
2023-05-09T01:12:11.154Z,3.70
2023-05-09T01:14:52.501Z,3.57
2023-05-09T01:17:31.669Z,3.43
2023-05-09T01:20:26.983Z,3.50
2023-05-09T01:23:10.878Z,3.50
2023-05-09T01:25:53.229Z,3.57
2023-05-09T01:28:32.494Z,3.80
2023-05-09T01:30:59.752Z,3.60
2023-05-09T01:33:28.908Z,3.83
2023-05-09T01:36:01.852Z,3.40
2023-05-09T01:38:32.064Z,3.67
2023-05-09T01:41:00.417Z,3.50
2023-05-09T01:43:29.831Z,3.90
2023-05-09T01:45:58.993Z,3.83
2023-05-09T01:48:30.130Z,3.90
2023-05-09T01:50:58.944Z,4.47
2023-05-09T01:53:27.906Z,3.60
2023-05-09T01:55:56.536Z,3.60
2023-05-09T01:58:24.669Z,4.10
2023-05-09T02:00:51.917Z,3.80
2023-05-09T02:03:21.198Z,3.77
2023-05-09T02:05:49.479Z,4.20
2023-05-09T02:08:21.016Z,3.90
2023-05-09T02:10:49.243Z,3.40
2023-05-09T02:13:16.099Z,3.60
2023-05-09T02:15:43.899Z,3.63
2023-05-09T02:18:10.914Z,3.47
2023-05-09T02:20:37.462Z,4.10
2023-05-09T02:23:04.470Z,3.67
2023-05-09T02:25:33.173Z,3.60
2023-05-09T02:28:01.493Z,4.03
2023-05-09T02:30:33.401Z,3.77
2023-05-09T02:33:04.939Z,3.70
2023-05-09T02:35:31.918Z,3.83
2023-05-09T02:37:59.422Z,4.00
2023-05-09T02:40:28.010Z,4.07
2023-05-09T02:42:54.653Z,3.93
2023-05-09T02:45:21.327Z,4.13
2023-05-09T02:47:47.819Z,4.67
2023-05-09T02:50:14.496Z,4.20
2023-05-09T02:52:41.919Z,4.57
2023-05-09T02:55:09.568Z,4.17
2023-05-09T02:57:39.119Z,4.77
2023-05-09T03:00:09.639Z,4.83
2023-05-09T03:02:37.579Z,3.90
2023-05-09T03:05:06.702Z,4.30
2023-05-09T03:07:35.200Z,4.33
2023-05-09T03:10:02.364Z,4.27
2023-05-09T03:12:31.115Z,4.60
2023-05-09T03:14:57.802Z,4.17
2023-05-09T03:17:24.468Z,3.70
2023-05-09T03:19:50.925Z,4.47
2023-05-09T03:22:17.315Z,3.97
2023-05-09T03:24:55.711Z,4.20
2023-05-09T03:27:22.405Z,4.30
2023-05-09T03:29:50.112Z,4.30
2023-05-09T03:32:18.734Z,4.23
2023-05-09T03:34:45.441Z,4.33
2023-05-09T03:37:12.194Z,4.30
2023-05-09T03:39:40.802Z,4.17
2023-05-09T03:42:07.215Z,4.67
2023-05-09T03:44:34.258Z,4.50
2023-05-09T03:47:00.919Z,4.30
2023-05-09T03:49:33.186Z,4.57
2023-05-09T03:51:59.645Z,4.33
2023-05-09T03:54:26.988Z,4.57
2023-05-09T03:56:53.455Z,4.37
2023-05-09T03:59:20.686Z,4.70
2023-05-09T04:01:47.192Z,4.10
2023-05-09T04:04:13.858Z,4.67
2023-05-09T04:06:40.595Z,5.00
2023-05-09T04:09:09.408Z,4.70
2023-05-09T04:11:36.529Z,4.70
2023-05-09T04:14:07.767Z,4.83
2023-05-09T04:16:36.031Z,4.83
2023-05-09T04:19:02.558Z,5.33
2023-05-09T04:21:29.261Z,4.90
2023-05-09T04:23:59.150Z,4.27
2023-05-09T04:26:38.982Z,5.10
2023-05-09T04:29:08.641Z,4.67
2023-05-09T04:31:36.023Z,4.47
2023-05-09T04:34:03.471Z,4.73
2023-05-09T04:36:34.091Z,4.77
2023-05-09T04:39:00.815Z,4.70
2023-05-09T04:41:28.568Z,5.07
2023-05-09T04:43:55.629Z,4.60
2023-05-09T04:46:25.847Z,5.03
2023-05-09T04:48:52.879Z,4.53
2023-05-09T04:51:20.383Z,4.70
2023-05-09T04:53:46.792Z,4.93
2023-05-09T04:56:15.322Z,4.73
2023-05-09T04:58:42.930Z,4.70
2023-05-09T05:01:10.905Z,4.87
2023-05-09T05:03:38.677Z,5.10
2023-05-09T05:06:06.604Z,5.60
2023-05-09T05:08:33.782Z,4.70
2023-05-09T05:11:00.640Z,5.03
2023-05-09T05:13:27.910Z,5.20
2023-05-09T05:15:58.663Z,4.73
2023-05-09T05:18:25.250Z,4.80
2023-05-09T05:20:51.635Z,5.00
2023-05-09T05:23:18.323Z,4.83
2023-05-09T05:25:44.851Z,5.27
2023-05-09T05:28:13.145Z,5.07
2023-05-09T05:30:41.204Z,5.30
2023-05-09T05:33:07.992Z,4.97
2023-05-09T05:35:34.552Z,4.77
2023-05-09T05:38:01.384Z,5.20
2023-05-09T05:40:28.144Z,4.77
2023-05-09T05:42:55.858Z,4.80
2023-05-09T05:45:23.274Z,5.10
2023-05-09T05:47:53.277Z,5.17
2023-05-09T05:50:20.348Z,5.10
2023-05-09T05:52:47.276Z,4.63
2023-05-09T05:55:15.709Z,5.37
2023-05-09T05:57:42.377Z,5.10
2023-05-09T06:00:14.504Z,4.50
2023-05-09T06:02:45.418Z,4.97
2023-05-09T06:05:19.373Z,4.77
2023-05-09T06:07:46.045Z,5.10
2023-05-09T06:10:12.589Z,4.60
2023-05-09T06:12:38.984Z,4.50
2023-05-09T06:15:07.302Z,5.13
2023-05-09T06:17:37.718Z,5.17
2023-05-09T06:20:04.910Z,5.13
2023-05-09T06:22:31.282Z,5.10
2023-05-09T06:24:57.951Z,4.50
2023-05-09T06:27:24.484Z,4.93
2023-05-09T06:29:52.604Z,4.70
2023-05-09T06:32:19.445Z,4.80
2023-05-09T06:34:45.926Z,4.57
2023-05-09T06:37:12.382Z,4.60
2023-05-09T06:39:38.827Z,4.97
2023-05-09T06:42:05.699Z,5.00
2023-05-09T06:44:37.130Z,4.87
2023-05-09T06:47:03.614Z,4.73
2023-05-09T06:49:30.189Z,5.10
2023-05-09T06:51:56.602Z,4.83
2023-05-09T06:54:23.047Z,4.80
2023-05-09T06:56:49.436Z,5.17
2023-05-09T06:59:16.495Z,5.13
2023-05-09T07:01:43.120Z,5.07
2023-05-09T07:04:09.563Z,4.77
2023-05-09T07:06:35.999Z,4.87
2023-05-09T07:09:03.710Z,5.00
2023-05-09T07:11:37.676Z,4.97
2023-05-09T07:14:04.572Z,5.00
2023-05-09T07:16:31.174Z,5.10
2023-05-09T07:18:57.608Z,5.10
2023-05-09T07:21:24.153Z,5.27
2023-05-09T07:23:50.574Z,4.73
2023-05-09T07:26:16.985Z,5.37
2023-05-09T07:28:43.428Z,5.40
2023-05-09T07:31:10.100Z,5.90
2023-05-09T07:33:36.578Z,5.70
2023-05-09T07:36:03.022Z,5.40
2023-05-09T07:38:29.519Z,5.20
2023-05-09T07:40:55.995Z,5.30
2023-05-09T07:43:22.425Z,5.00
2023-05-09T07:45:48.976Z,5.10
2023-05-09T07:48:15.514Z,6.10
2023-05-09T07:50:42.140Z,4.67
2023-05-09T07:53:08.635Z,5.23
2023-05-09T07:55:35.063Z,4.93
2023-05-09T07:58:01.453Z,5.97
2023-05-09T08:00:27.890Z,5.70
2023-05-09T08:02:54.443Z,5.70
2023-05-09T08:05:21.007Z,5.30
2023-05-09T08:07:47.401Z,4.93
2023-05-09T08:10:14.005Z,5.20
2023-05-09T08:12:40.537Z,5.53
2023-05-09T08:15:07.831Z,5.10
2023-05-09T08:17:34.604Z,5.30
2023-05-09T08:20:01.687Z,5.53
2023-05-09T08:22:28.115Z,5.30
2023-05-09T08:24:54.538Z,5.60
2023-05-09T08:27:20.952Z,5.57
2023-05-09T08:29:47.348Z,5.30
2023-05-09T08:32:14.196Z,5.23
2023-05-09T08:34:40.855Z,5.27
2023-05-09T08:37:07.652Z,5.90
2023-05-09T08:39:37.298Z,6.10
2023-05-09T08:42:04.094Z,5.53
2023-05-09T08:44:31.871Z,5.57
2023-05-09T08:47:02.990Z,5.60
2023-05-09T08:49:30.381Z,5.87
2023-05-09T08:51:57.080Z,6.07
2023-05-09T08:54:24.390Z,6.03
2023-05-09T08:56:51.377Z,6.00
2023-05-09T08:59:18.817Z,5.90
2023-05-09T09:01:45.824Z,5.67
2023-05-09T09:04:12.406Z,5.60
2023-05-09T09:06:40.528Z,6.10
2023-05-09T09:09:08.935Z,5.57
2023-05-09T09:11:38.929Z,6.10
2023-05-09T09:14:12.993Z,6.30
2023-05-09T09:16:41.593Z,5.93
2023-05-09T09:19:12.914Z,6.20
2023-05-09T09:21:44.551Z,6.20
2023-05-09T09:24:14.700Z,5.90
2023-05-09T09:26:49.383Z,6.10
2023-05-09T09:29:17.444Z,7.03
2023-05-09T09:31:47.948Z,6.80
2023-05-09T09:34:22.334Z,6.80
2023-05-09T09:36:49.510Z,7.07
2023-05-09T09:39:16.023Z,6.90
2023-05-09T09:41:44.448Z,7.20
2023-05-09T09:44:15.311Z,7.60
2023-05-09T09:46:47.006Z,7.03
2023-05-09T09:49:14.902Z,7.97
2023-05-09T09:51:42.059Z,8.00
2023-05-09T09:54:10.001Z,8.10
2023-05-09T09:56:47.407Z,8.43
2023-05-09T09:59:16.371Z,8.13
2023-05-09T10:02:07.507Z,7.70
2023-05-09T10:04:36.644Z,7.20
2023-05-09T10:07:06.196Z,7.30
2023-05-09T10:09:34.416Z,8.33
2023-05-09T10:12:07.853Z,8.20
2023-05-09T10:14:36.613Z,8.73
2023-05-09T10:17:05.235Z,8.40
2023-05-09T10:19:32.960Z,7.80
2023-05-09T10:22:08.041Z,8.33
2023-05-09T10:24:40.475Z,8.23
2023-05-09T10:27:11.688Z,7.87
2023-05-09T10:29:44.757Z,7.90
2023-05-09T10:32:53.470Z,6.87
2023-05-09T10:35:33.618Z,8.03
2023-05-09T10:38:02.054Z,7.30
2023-05-09T10:40:29.120Z,8.10
2023-05-09T10:42:55.572Z,7.60
2023-05-09T10:45:22.438Z,8.03
2023-05-09T10:47:51.448Z,7.70
2023-05-09T10:50:18.495Z,7.53
2023-05-09T10:53:11.469Z,7.13
2023-05-09T10:55:47.224Z,7.50
2023-05-09T10:58:20.186Z,7.40
2023-05-09T11:00:48.394Z,7.60
2023-05-09T11:03:15.168Z,7.37
2023-05-09T11:05:41.917Z,6.97
2023-05-09T11:08:25.353Z,8.10
2023-05-09T11:10:54.163Z,7.27
2023-05-09T11:13:25.775Z,6.70
2023-05-09T11:16:01.583Z,7.30
2023-05-09T11:18:32.835Z,7.20
2023-05-09T11:21:08.600Z,6.90
2023-05-09T11:23:35.142Z,7.00
2023-05-09T11:26:06.463Z,7.20
2023-05-09T11:28:37.822Z,7.07
2023-05-09T11:31:18.324Z,7.13
2023-05-09T11:33:49.013Z,6.80
2023-05-09T11:36:20.766Z,6.37
2023-05-09T11:38:47.701Z,6.73
2023-05-09T11:41:14.776Z,6.47
2023-05-09T11:43:44.508Z,7.07
2023-05-09T11:46:11.495Z,6.47
2023-05-09T11:48:39.473Z,7.10
2023-05-09T11:51:06.416Z,6.87
2023-05-09T11:53:33.271Z,7.20
2023-05-09T11:56:04.024Z,6.67
2023-05-09T11:58:31.130Z,6.70
2023-05-09T12:00:57.898Z,6.43
2023-05-09T12:03:25.101Z,6.87
2023-05-09T12:05:51.795Z,6.30
2023-05-09T12:08:18.343Z,6.23
2023-05-09T12:10:44.736Z,6.70
2023-05-09T12:13:11.251Z,6.70
2023-05-09T12:15:38.208Z,6.50
2023-05-09T12:18:06.561Z,6.80
2023-05-09T12:20:52.696Z,6.73
2023-05-09T12:23:19.631Z,6.70
2023-05-09T12:25:53.805Z,6.50
2023-05-09T12:28:22.443Z,6.60
2023-05-09T12:30:50.153Z,6.00
2023-05-09T12:33:17.067Z,6.30
2023-05-09T12:35:47.303Z,6.30
2023-05-09T12:38:15.794Z,6.83
2023-05-09T12:40:44.181Z,6.60
2023-05-09T12:43:10.670Z,6.13
2023-05-09T12:45:39.118Z,5.90
2023-05-09T12:48:06.136Z,5.90
2023-05-09T12:50:36.449Z,6.20
2023-05-09T12:53:04.416Z,5.80
2023-05-09T12:55:31.876Z,6.10
2023-05-09T12:58:03.465Z,6.00
2023-05-09T13:00:42.473Z,5.90
2023-05-09T13:03:26.224Z,6.23
2023-05-09T13:06:02.273Z,6.33
2023-05-09T13:08:29.314Z,6.63
2023-05-09T13:11:08.081Z,6.30
2023-05-09T13:13:42.374Z,6.43
2023-05-09T13:16:10.764Z,6.00
2023-05-09T13:18:38.749Z,6.00
2023-05-09T13:21:05.278Z,5.70
2023-05-09T13:23:32.011Z,5.60
2023-05-09T13:25:58.416Z,5.97
2023-05-09T13:28:24.837Z,6.03
2023-05-09T13:30:51.279Z,6.40
2023-05-09T13:33:25.869Z,5.80
2023-05-09T13:35:53.060Z,5.77
2023-05-09T13:38:19.500Z,5.67
2023-05-09T13:40:46.286Z,6.00
2023-05-09T13:43:12.699Z,5.77
2023-05-09T13:45:39.390Z,6.10
2023-05-09T13:48:06.505Z,6.07
2023-05-09T13:50:34.331Z,5.97
2023-05-09T13:53:02.007Z,6.23
2023-05-09T13:55:29.664Z,6.47
2023-05-09T13:57:56.356Z,5.53
2023-05-09T14:00:25.430Z,6.40
2023-05-09T14:02:52.610Z,5.90
2023-05-09T14:05:19.121Z,5.70
2023-05-09T14:07:45.833Z,5.90
2023-05-09T14:10:12.665Z,5.90
2023-05-09T14:12:39.833Z,5.50
2023-05-09T14:15:07.847Z,5.40
2023-05-09T14:17:34.665Z,5.75
2023-05-09T14:20:01.276Z,6.10
2023-05-09T14:22:28.195Z,5.80
2023-05-09T14:24:56.433Z,6.50
2023-05-09T14:27:23.242Z,5.90
2023-05-09T14:29:49.655Z,5.50
2023-05-09T14:32:16.287Z,5.17
2023-05-09T14:34:42.748Z,5.47
2023-05-09T14:37:13.619Z,5.63
2023-05-09T14:39:45.314Z,5.80
2023-05-09T14:42:13.970Z,5.30
2023-05-09T14:44:41.661Z,5.53
2023-05-09T14:47:09.644Z,6.10
2023-05-09T14:50:02.670Z,5.93
2023-05-09T14:52:29.101Z,5.67
2023-05-09T14:54:55.636Z,6.00
2023-05-09T14:57:22.303Z,5.70
2023-05-09T14:59:48.754Z,5.57
2023-05-09T15:02:15.214Z,5.70
2023-05-09T15:04:43.726Z,5.90
2023-05-09T15:07:10.623Z,6.07
2023-05-09T15:09:37.861Z,5.63
2023-05-09T15:12:04.653Z,5.47
2023-05-09T15:14:31.284Z,5.50
2023-05-09T15:17:01.790Z,5.70
2023-05-09T15:19:31.434Z,5.73
2023-05-09T15:21:59.505Z,5.87
2023-05-09T15:24:26.948Z,5.40
2023-05-09T15:26:54.197Z,5.37
2023-05-09T15:29:21.692Z,5.53
2023-05-09T15:31:48.841Z,5.73
2023-05-09T15:34:15.485Z,5.70
2023-05-09T15:36:41.934Z,5.53
2023-05-09T15:39:08.417Z,6.43
2023-05-09T15:41:35.101Z,5.77
2023-05-09T15:44:01.607Z,5.93
2023-05-09T15:46:28.299Z,5.97
2023-05-09T15:48:56.139Z,6.00
2023-05-09T15:51:22.621Z,5.87
2023-05-09T15:53:49.807Z,6.20
2023-05-09T15:56:16.274Z,5.93
2023-05-09T15:58:42.663Z,6.10
2023-05-09T16:01:12.794Z,5.60
2023-05-09T16:03:39.476Z,6.00
2023-05-09T16:06:06.503Z,5.80
2023-05-09T16:08:33.251Z,6.07
2023-05-09T16:11:02.589Z,5.90
2023-05-09T16:13:30.080Z,6.03
2023-05-09T16:15:56.908Z,5.63
2023-05-09T16:18:23.474Z,6.40
2023-05-09T16:20:49.902Z,5.93
2023-05-09T16:23:16.309Z,5.90
2023-05-09T16:25:42.764Z,6.07
2023-05-09T16:28:09.335Z,5.87
2023-05-09T16:30:36.357Z,6.40
2023-05-09T16:33:02.950Z,6.07
2023-05-09T16:35:29.554Z,5.90
2023-05-09T16:37:56.135Z,5.73
2023-05-09T16:40:22.707Z,5.73
2023-05-09T16:42:49.398Z,5.97
2023-05-09T16:45:15.952Z,5.70
2023-05-09T16:47:42.379Z,5.47
2023-05-09T16:50:10.458Z,5.20
2023-05-09T16:52:37.152Z,5.00
2023-05-09T16:55:04.258Z,5.10
2023-05-09T16:57:31.109Z,5.23
2023-05-09T16:59:58.465Z,5.30
2023-05-09T17:02:24.888Z,5.40
2023-05-09T17:04:51.618Z,5.57
2023-05-09T17:07:18.124Z,4.90
2023-05-09T17:09:44.619Z,5.70
2023-05-09T17:12:17.311Z,5.33
2023-05-09T17:14:45.236Z,6.00
2023-05-09T17:17:12.928Z,5.10
2023-05-09T17:19:39.494Z,5.07
2023-05-09T17:22:06.472Z,4.43
2023-05-09T17:24:33.323Z,4.87
2023-05-09T17:27:01.214Z,4.70
2023-05-09T17:29:30.517Z,4.93
2023-05-09T17:32:01.614Z,4.80
2023-05-09T17:34:28.606Z,5.17
2023-05-09T17:36:55.243Z,4.60
2023-05-09T17:39:21.983Z,4.63
2023-05-09T17:41:48.440Z,4.70
2023-05-09T17:44:15.422Z,4.90
2023-05-09T17:46:42.045Z,4.50
2023-05-09T17:49:10.825Z,4.20
2023-05-09T17:51:37.522Z,4.30
2023-05-09T17:54:05.352Z,4.03
2023-05-09T17:56:32.201Z,4.20
2023-05-09T17:58:59.552Z,4.23
2023-05-09T18:01:26.528Z,4.30
2023-05-09T18:03:53.196Z,3.83
2023-05-09T18:06:19.794Z,4.00
2023-05-09T18:08:46.227Z,3.83
2023-05-09T18:11:12.975Z,3.93
2023-05-09T18:13:39.599Z,4.00
2023-05-09T18:16:06.653Z,3.80
2023-05-09T18:18:34.477Z,3.60
2023-05-09T18:21:02.115Z,3.50
2023-05-09T18:23:28.602Z,3.40
2023-05-09T18:25:55.073Z,3.60
2023-05-09T18:28:27.565Z,3.67
2023-05-09T18:30:56.778Z,3.93
2023-05-09T18:33:24.553Z,4.40
2023-05-09T18:35:52.853Z,3.80
2023-05-09T18:38:19.371Z,3.90
2023-05-09T18:40:46.042Z,3.70
2023-05-09T18:43:12.480Z,3.63
2023-05-09T18:45:39.096Z,3.50
2023-05-09T18:48:05.834Z,3.40
2023-05-09T18:50:32.499Z,3.80
2023-05-09T18:52:59.550Z,3.63
2023-05-09T18:55:26.717Z,3.50
2023-05-09T18:57:53.257Z,3.57
2023-05-09T19:00:19.717Z,3.50
2023-05-09T19:02:46.172Z,3.60
2023-05-09T19:05:12.689Z,3.90
2023-05-09T19:07:39.639Z,3.57
2023-05-09T19:10:08.287Z,3.70
2023-05-09T19:12:37.742Z,3.47
2023-05-09T19:15:05.368Z,3.30
2023-05-09T19:17:32.750Z,3.57
2023-05-09T19:19:59.296Z,3.20
2023-05-09T19:22:26.502Z,3.37
2023-05-09T19:24:52.947Z,3.20
2023-05-09T19:27:19.590Z,3.23
2023-05-09T19:29:47.496Z,3.30
2023-05-09T19:32:17.751Z,3.13
2023-05-09T19:34:44.162Z,3.20
2023-05-09T19:37:10.600Z,3.30
2023-05-09T19:39:37.298Z,3.40
2023-05-09T19:42:03.874Z,3.00
2023-05-09T19:44:30.443Z,3.27
2023-05-09T19:46:58.397Z,2.90
2023-05-09T19:49:24.927Z,2.70
2023-05-09T19:51:51.281Z,3.10
2023-05-09T19:54:17.694Z,3.27
2023-05-09T19:56:44.202Z,2.83
2023-05-09T19:59:10.646Z,2.87
2023-05-09T20:01:37.915Z,2.90
2023-05-09T20:04:04.525Z,2.80
2023-05-09T20:06:31.346Z,2.97
2023-05-09T20:08:57.843Z,3.00
2023-05-09T20:11:24.287Z,3.23
2023-05-09T20:13:50.823Z,2.60
2023-05-09T20:16:17.423Z,2.77
2023-05-09T20:18:44.120Z,2.97
2023-05-09T20:21:10.772Z,2.83
2023-05-09T20:23:39.460Z,3.00
2023-05-09T20:26:06.034Z,3.00
2023-05-09T20:28:32.538Z,2.70
2023-05-09T20:30:59.076Z,2.50
2023-05-09T20:33:25.620Z,3.00
2023-05-09T20:35:52.137Z,2.73
2023-05-09T20:38:19.100Z,2.50
2023-05-09T20:40:45.501Z,2.40
2023-05-09T20:43:12.188Z,2.90
2023-05-09T20:45:38.802Z,2.60
2023-05-09T20:48:06.739Z,2.70
2023-05-09T20:50:33.510Z,2.60
2023-05-09T20:53:00.124Z,2.63
2023-05-09T20:55:27.055Z,2.80
2023-05-09T20:57:53.487Z,2.40
2023-05-09T21:00:19.935Z,2.83
2023-05-09T21:02:46.621Z,2.70
2023-05-09T21:05:13.123Z,2.93
2023-05-09T21:07:39.660Z,2.67
2023-05-09T21:10:06.802Z,2.33
2023-05-09T21:12:33.349Z,2.57
2023-05-09T21:14:59.924Z,2.77
2023-05-09T21:17:26.502Z,2.83
2023-05-09T21:19:53.218Z,2.37
2023-05-09T21:22:19.626Z,2.50
2023-05-09T21:24:46.374Z,2.80
2023-05-09T21:27:12.894Z,2.60
2023-05-09T21:29:39.562Z,2.60
2023-05-09T21:32:06.080Z,3.17
2023-05-09T21:34:32.826Z,3.00
2023-05-09T21:36:59.231Z,2.60
2023-05-09T21:39:26.936Z,3.00
2023-05-09T21:41:53.370Z,2.93
2023-05-09T21:44:19.810Z,3.30
2023-05-09T21:46:46.555Z,2.77
2023-05-09T21:49:16.488Z,3.23
2023-05-09T21:51:42.970Z,2.70
2023-05-09T21:54:10.756Z,2.77
2023-05-09T21:56:37.245Z,3.23
2023-05-09T21:59:03.752Z,3.10
2023-05-09T22:01:30.194Z,3.00
2023-05-09T22:03:56.703Z,3.13
2023-05-09T22:06:23.312Z,2.83
2023-05-09T22:08:51.058Z,3.00
2023-05-09T22:11:18.211Z,2.87
2023-05-09T22:13:44.592Z,3.40
2023-05-09T22:16:11.110Z,3.33
2023-05-09T22:18:37.685Z,3.10
2023-05-09T22:21:04.411Z,2.90
2023-05-09T22:23:31.370Z,2.80
2023-05-09T22:25:58.034Z,2.67
2023-05-09T22:28:24.511Z,2.77
2023-05-09T22:30:50.912Z,2.73
2023-05-09T22:33:17.351Z,2.70
2023-05-09T22:35:43.794Z,3.20
2023-05-09T22:38:10.929Z,2.90
2023-05-09T22:40:37.832Z,3.10
2023-05-09T22:43:04.413Z,2.67
2023-05-09T22:45:30.858Z,2.87
2023-05-09T22:47:57.514Z,3.20
2023-05-09T22:50:23.985Z,2.90
2023-05-09T22:52:50.432Z,2.97
2023-05-09T22:55:16.945Z,2.90
2023-05-09T22:57:43.332Z,3.10
2023-05-09T23:00:10.404Z,2.63
2023-05-09T23:02:37.205Z,2.90
2023-05-09T23:05:03.825Z,3.00
2023-05-09T23:07:30.293Z,3.00
2023-05-09T23:09:56.731Z,2.83
2023-05-09T23:12:23.109Z,3.07
2023-05-09T23:14:49.513Z,3.20
2023-05-09T23:17:16.078Z,2.97
2023-05-09T23:19:42.510Z,2.90
2023-05-09T23:22:08.965Z,3.37
2023-05-09T23:24:35.848Z,3.20
2023-05-09T23:27:05.051Z,2.90
2023-05-09T23:29:33.270Z,3.23
2023-05-09T23:31:59.941Z,2.93
2023-05-09T23:34:26.640Z,2.70
2023-05-09T23:36:53.079Z,3.10
2023-05-09T23:39:19.532Z,3.30
2023-05-09T23:41:46.042Z,2.93
2023-05-09T23:44:12.554Z,3.33
2023-05-09T23:46:39.011Z,3.50
2023-05-09T23:49:05.824Z,3.47
2023-05-09T23:51:32.778Z,3.70
2023-05-09T23:53:59.221Z,3.87
2023-05-09T23:56:27.522Z,3.97
2023-05-09T23:58:54.043Z,3.77
